createdAt,value
2023-05-19T00:00:48.239Z,1011
2023-05-19T00:02:05.214Z,1011
2023-05-19T00:03:24.180Z,1011
2023-05-19T00:04:46.149Z,1011
2023-05-19T00:06:07.487Z,1011
2023-05-19T00:07:24.381Z,1011
2023-05-19T00:08:42.328Z,1011
2023-05-19T00:10:06.244Z,1011
2023-05-19T00:11:29.246Z,1011.1
2023-05-19T00:12:55.729Z,1011
2023-05-19T00:14:13.168Z,1011
2023-05-19T00:15:33.390Z,1011.1
2023-05-19T00:16:51.370Z,1011.1
2023-05-19T00:18:13.214Z,1011
2023-05-19T00:19:32.526Z,1011
2023-05-19T00:21:02.646Z,1011
2023-05-19T00:22:24.887Z,1011
2023-05-19T00:23:48.156Z,1010.9
2023-05-19T00:25:15.317Z,1010.9
2023-05-19T00:26:37.379Z,1011
2023-05-19T00:28:09.122Z,1010.9
2023-05-19T00:29:39.298Z,1010.9
2023-05-19T00:30:57.618Z,1010.9
2023-05-19T00:32:20.511Z,1010.9
2023-05-19T00:33:46.545Z,1010.9
2023-05-19T00:35:05.423Z,1010.9
2023-05-19T00:36:31.836Z,1011
2023-05-19T00:38:06.672Z,1010.9
2023-05-19T00:39:38.370Z,1010.9
2023-05-19T00:41:00.635Z,1010.9
2023-05-19T00:42:21.186Z,1010.9
2023-05-19T00:43:48.230Z,1010.9
2023-05-19T00:45:16.439Z,1010.9
2023-05-19T00:46:46.740Z,1010.9
2023-05-19T00:48:12.222Z,1010.9
2023-05-19T00:49:40.700Z,1010.9
2023-05-19T00:51:15.081Z,1010.8
2023-05-19T00:52:47.199Z,1010.9
2023-05-19T00:54:18.225Z,1010.8
2023-05-19T00:55:39.480Z,1010.9
2023-05-19T01:00:00.868Z,1010.9
2023-05-19T01:01:29.684Z,1010.9
2023-05-19T01:02:58.119Z,1010.9
2023-05-19T01:04:25.428Z,1010.9
2023-05-19T01:05:52.039Z,1010.9
2023-05-19T01:07:11.352Z,1010.9
2023-05-19T01:08:44.666Z,1010.9
2023-05-19T01:10:13.438Z,1010.9
2023-05-19T01:11:36.467Z,1010.9
2023-05-19T01:13:00.702Z,1010.9
2023-05-19T01:14:22.641Z,1010.9
2023-05-19T01:15:42.496Z,1010.9
2023-05-19T01:18:32.240Z,1010.9
2023-05-19T01:19:52.660Z,1010.9
2023-05-19T01:21:13.483Z,1011
2023-05-19T01:22:33.312Z,1011
2023-05-19T01:23:57.708Z,1011
2023-05-19T01:25:16.862Z,1011
2023-05-19T01:26:34.256Z,1011
2023-05-19T01:27:54.234Z,1011
2023-05-19T01:29:23.138Z,1011
2023-05-19T01:30:43.481Z,1011
2023-05-19T01:32:12.389Z,1010.9
2023-05-19T01:33:30.678Z,1011
2023-05-19T01:34:54.533Z,1010.9
2023-05-19T01:36:22.979Z,1011
2023-05-19T01:39:28.375Z,1010.9
2023-05-19T01:40:52.684Z,1010.9
2023-05-19T01:42:24.495Z,1010.9
2023-05-19T01:43:43.293Z,1010.9
2023-05-19T01:45:09.506Z,1010.8
2023-05-19T01:46:46.403Z,1010.9
2023-05-19T01:48:09.234Z,1010.9
2023-05-19T01:49:31.208Z,1010.9
2023-05-19T01:51:01.173Z,1011
2023-05-19T01:52:21.730Z,1011
2023-05-19T01:53:47.577Z,1011
2023-05-19T01:55:11.172Z,1011
2023-05-19T01:56:35.216Z,1011
2023-05-19T01:57:58.560Z,1010.9
2023-05-19T01:59:28.037Z,1011
2023-05-19T02:01:00.017Z,1010.9
2023-05-19T02:02:33.562Z,1010.9
2023-05-19T02:03:52.528Z,1010.9
2023-05-19T02:05:18.375Z,1010.9
2023-05-19T02:06:37.729Z,1010.9
2023-05-19T02:07:57.721Z,1010.9
2023-05-19T02:09:18.237Z,1010.9
2023-05-19T02:10:36.333Z,1010.8
2023-05-19T02:11:55.365Z,1010.8
2023-05-19T02:13:24.270Z,1010.8
2023-05-19T02:14:52.153Z,1010.8
2023-05-19T02:16:20.463Z,1010.8
2023-05-19T02:17:52.247Z,1010.8
2023-05-19T02:19:18.306Z,1010.8
2023-05-19T02:20:40.457Z,1010.8
2023-05-19T02:21:59.558Z,1010.8
2023-05-19T02:23:22.679Z,1010.8
2023-05-19T02:24:44.214Z,1010.8
2023-05-19T02:26:08.141Z,1010.8
2023-05-19T02:27:36.666Z,1010.8
2023-05-19T02:28:59.814Z,1010.8
2023-05-19T02:30:21.521Z,1010.8
2023-05-19T02:31:39.387Z,1010.8
2023-05-19T02:33:08.390Z,1010.8
2023-05-19T02:34:29.342Z,1010.8
2023-05-19T02:36:08.382Z,1010.8
2023-05-19T02:37:33.478Z,1010.8
2023-05-19T02:38:58.674Z,1010.7
2023-05-19T02:40:24.189Z,1010.7
2023-05-19T02:41:46.340Z,1010.7
2023-05-19T02:43:09.061Z,1010.7
2023-05-19T02:44:32.379Z,1010.7
2023-05-19T02:45:53.641Z,1010.7
2023-05-19T02:47:21.080Z,1010.7
2023-05-19T02:48:43.280Z,1010.7
2023-05-19T02:50:04.630Z,1010.7
2023-05-19T02:51:24.296Z,1010.7
2023-05-19T02:52:55.095Z,1010.7
2023-05-19T02:54:24.622Z,1010.7
2023-05-19T02:55:48.634Z,1010.7
2023-05-19T02:57:08.488Z,1010.7
2023-05-19T02:58:29.061Z,1010.7
2023-05-19T02:59:50.600Z,1010.7
2023-05-19T03:01:11.266Z,1010.7
2023-05-19T03:02:33.627Z,1010.7
2023-05-19T03:03:57.279Z,1010.7
2023-05-19T03:05:21.698Z,1010.7
2023-05-19T03:06:45.527Z,1010.6
2023-05-19T03:08:23.109Z,1010.6
2023-05-19T03:09:45.319Z,1010.6
2023-05-19T03:11:02.708Z,1010.6
2023-05-19T03:12:26.474Z,1010.6
2023-05-19T03:13:56.054Z,1010.6
2023-05-19T03:15:14.389Z,1010.6
2023-05-19T03:16:35.589Z,1010.6
2023-05-19T03:17:55.875Z,1010.6
2023-05-19T03:19:19.091Z,1010.6
2023-05-19T03:20:46.686Z,1010.6
2023-05-19T03:22:05.719Z,1010.6
2023-05-19T03:23:32.248Z,1010.6
2023-05-19T03:25:03.905Z,1010.5
2023-05-19T03:26:37.254Z,1010.5
2023-05-19T03:28:15.676Z,1010.6
2023-05-19T03:29:37.703Z,1010.6
2023-05-19T03:30:54.440Z,1010.6
2023-05-19T03:32:21.505Z,1010.6
2023-05-19T03:33:39.502Z,1010.6
2023-05-19T03:35:00.671Z,1010.6
2023-05-19T03:36:27.763Z,1010.6
2023-05-19T03:37:56.900Z,1010.6
2023-05-19T03:39:13.652Z,1010.6
2023-05-19T03:40:34.804Z,1010.6
2023-05-19T03:41:55.710Z,1010.6
2023-05-19T03:43:23.720Z,1010.6
2023-05-19T03:44:43.684Z,1010.6
2023-05-19T03:46:09.011Z,1010.6
2023-05-19T03:47:30.084Z,1010.6
2023-05-19T03:48:57.154Z,1010.7
2023-05-19T03:50:19.651Z,1010.6
2023-05-19T03:51:45.617Z,1010.7
2023-05-19T03:53:09.739Z,1010.6
2023-05-19T03:54:42.875Z,1010.7
2023-05-19T03:56:02.804Z,1010.7
2023-05-19T03:57:20.926Z,1010.7
2023-05-19T03:58:46.762Z,1010.7
2023-05-19T04:00:18.240Z,1010.7
2023-05-19T04:01:36.784Z,1010.8
2023-05-19T04:02:59.795Z,1010.8
2023-05-19T04:04:18.633Z,1010.7
2023-05-19T04:05:38.641Z,1010.7
2023-05-19T04:07:00.834Z,1010.7
2023-05-19T04:08:28.118Z,1010.7
2023-05-19T04:09:53.263Z,1010.7
2023-05-19T04:11:20.684Z,1010.7
2023-05-19T04:12:40.590Z,1010.7
2023-05-19T04:14:23.606Z,1010.8
2023-05-19T04:15:50.137Z,1010.8
2023-05-19T04:17:09.714Z,1010.8
2023-05-19T04:18:42.565Z,1010.8
2023-05-19T04:20:01.745Z,1010.8
2023-05-19T04:21:23.003Z,1010.8
2023-05-19T04:23:04.472Z,1010.8
2023-05-19T04:24:35.446Z,1010.8
2023-05-19T04:26:01.281Z,1010.8
2023-05-19T04:27:24.510Z,1010.8
2023-05-19T04:28:49.482Z,1010.8
2023-05-19T04:30:18.616Z,1010.8
2023-05-19T04:31:43.379Z,1010.9
2023-05-19T04:33:08.463Z,1010.8
2023-05-19T04:34:33.723Z,1010.9
2023-05-19T04:35:53.979Z,1010.9
2023-05-19T04:37:21.662Z,1010.9
2023-05-19T04:38:42.181Z,1010.8
2023-05-19T04:40:05.844Z,1010.8
2023-05-19T04:41:29.417Z,1010.8
2023-05-19T04:42:50.238Z,1010.8
2023-05-19T04:44:19.497Z,1010.8
2023-05-19T04:45:43.068Z,1010.8
2023-05-19T04:47:19.603Z,1010.7
2023-05-19T04:50:14.031Z,1010.8
2023-05-19T04:51:34.559Z,1010.8
2023-05-19T04:53:05.285Z,1010.8
2023-05-19T04:54:27.463Z,1010.7
2023-05-19T04:56:03.024Z,1010.8
2023-05-19T04:57:31.636Z,1010.7
2023-05-19T04:59:05.604Z,1010.8
2023-05-19T05:00:30.039Z,1010.8
2023-05-19T05:01:50.891Z,1010.8
2023-05-19T05:03:12.596Z,1010.7
2023-05-19T05:04:36.752Z,1010.7
2023-05-19T05:06:02.806Z,1010.8
2023-05-19T05:07:26.475Z,1010.8
2023-05-19T05:08:52.121Z,1010.8
2023-05-19T05:10:12.973Z,1010.8
2023-05-19T05:11:30.907Z,1010.8
2023-05-19T05:12:54.020Z,1010.8
2023-05-19T05:14:20.246Z,1010.8
2023-05-19T05:15:43.033Z,1010.8
2023-05-19T05:17:01.915Z,1010.8
2023-05-19T05:18:31.989Z,1010.8
2023-05-19T05:19:54.520Z,1010.8
2023-05-19T05:21:17.525Z,1010.8
2023-05-19T05:22:35.875Z,1010.8
2023-05-19T05:24:06.643Z,1010.8
2023-05-19T05:25:28.876Z,1010.8
2023-05-19T05:26:57.044Z,1010.8
2023-05-19T05:28:18.647Z,1010.8
2023-05-19T05:29:42.133Z,1010.8
2023-05-19T05:31:00.825Z,1010.9
2023-05-19T05:32:28.325Z,1010.8
2023-05-19T05:33:56.109Z,1010.8
2023-05-19T05:35:23.136Z,1010.8
2023-05-19T05:36:42.763Z,1010.9
2023-05-19T05:38:10.537Z,1010.9
2023-05-19T05:39:35.690Z,1010.9
2023-05-19T05:41:01.105Z,1010.9
2023-05-19T05:42:23.862Z,1011
2023-05-19T05:43:56.694Z,1010.9
2023-05-19T05:45:17.727Z,1010.9
2023-05-19T05:46:41.950Z,1010.9
2023-05-19T05:48:02.862Z,1010.8
2023-05-19T05:49:26.905Z,1010.8
2023-05-19T05:50:55.681Z,1010.8
2023-05-19T05:52:21.859Z,1010.8
2023-05-19T05:53:45.042Z,1010.8
2023-05-19T05:55:01.838Z,1010.8
2023-05-19T05:56:34.511Z,1010.8
2023-05-19T05:57:54.639Z,1010.8
2023-05-19T05:59:18.572Z,1010.8
2023-05-19T06:00:38.949Z,1010.8
2023-05-19T06:02:00.946Z,1010.8
2023-05-19T06:03:30.385Z,1010.8
2023-05-19T06:05:05.551Z,1010.8
2023-05-19T06:06:32.455Z,1010.8
2023-05-19T06:08:06.415Z,1010.8
2023-05-19T06:09:25.941Z,1010.8
2023-05-19T06:10:47.317Z,1010.8
2023-05-19T06:12:13.800Z,1010.8
2023-05-19T06:13:35.000Z,1010.9
2023-05-19T06:14:56.818Z,1010.9
2023-05-19T06:16:17.760Z,1011
2023-05-19T06:17:39.128Z,1010.9
2023-05-19T06:19:14.605Z,1010.9
2023-05-19T06:20:34.113Z,1011
2023-05-19T06:21:56.734Z,1011
2023-05-19T06:23:28.069Z,1011
2023-05-19T06:24:54.730Z,1011
2023-05-19T06:26:17.709Z,1011
2023-05-19T06:27:37.928Z,1011.1
2023-05-19T06:28:59.163Z,1011.1
2023-05-19T06:30:20.924Z,1011.1
2023-05-19T06:31:55.744Z,1011.1
2023-05-19T06:33:18.728Z,1011.1
2023-05-19T06:34:44.622Z,1011.1
2023-05-19T06:36:21.595Z,1011.1
2023-05-19T06:37:51.462Z,1011.1
2023-05-19T06:39:16.585Z,1011.1
2023-05-19T06:40:53.081Z,1011.1
2023-05-19T06:42:16.715Z,1011.1
2023-05-19T06:43:39.917Z,1011.1
2023-05-19T06:45:08.837Z,1011.1
2023-05-19T06:46:30.775Z,1011.1
2023-05-19T06:47:52.468Z,1011.2
2023-05-19T06:49:10.725Z,1011.2
2023-05-19T06:50:32.884Z,1011.1
2023-05-19T06:53:27.894Z,1011.2
2023-05-19T06:54:49.724Z,1011.2
2023-05-19T06:56:20.730Z,1011.2
2023-05-19T06:57:43.202Z,1011.2
2023-05-19T06:59:06.695Z,1011.2
2023-05-19T07:00:35.850Z,1011.1
2023-05-19T07:01:57.579Z,1011.1
2023-05-19T07:03:15.853Z,1011.1
2023-05-19T07:04:41.462Z,1011.1
2023-05-19T07:06:09.811Z,1011.1
2023-05-19T07:07:33.753Z,1011.1
2023-05-19T07:08:58.073Z,1011.1
2023-05-19T07:10:25.402Z,1011.1
2023-05-19T07:11:44.981Z,1011.1
2023-05-19T07:13:04.768Z,1011.1
2023-05-19T07:14:25.112Z,1011.1
2023-05-19T07:15:50.753Z,1011.1
2023-05-19T07:17:13.471Z,1011.1
2023-05-19T07:18:43.954Z,1011.2
2023-05-19T07:20:05.008Z,1011.2
2023-05-19T07:21:36.277Z,1011.2
2023-05-19T07:23:00.228Z,1011.1
2023-05-19T07:24:37.062Z,1011.1
2023-05-19T07:26:12.789Z,1011.2
2023-05-19T07:29:04.379Z,1011.1
2023-05-19T07:30:25.839Z,1011.1
2023-05-19T07:31:48.335Z,1011.1
2023-05-19T07:33:07.995Z,1011.1
2023-05-19T07:34:33.026Z,1011.1
2023-05-19T07:35:52.253Z,1011.2
2023-05-19T07:37:17.530Z,1011.2
2023-05-19T07:38:39.252Z,1011.2
2023-05-19T07:40:06.755Z,1011.2
2023-05-19T07:41:36.918Z,1011.2
2023-05-19T07:43:02.991Z,1011.2
2023-05-19T07:44:28.778Z,1011.2
2023-05-19T07:45:46.929Z,1011.2
2023-05-19T07:47:08.657Z,1011.2
2023-05-19T07:48:31.079Z,1011.2
2023-05-19T07:49:51.953Z,1011.2
2023-05-19T07:51:23.053Z,1011.1
2023-05-19T07:52:45.105Z,1011.1
2023-05-19T07:54:06.563Z,1011.1
2023-05-19T07:55:34.250Z,1011.1
2023-05-19T07:56:59.520Z,1011.2
2023-05-19T07:58:26.170Z,1011.1
2023-05-19T07:59:50.485Z,1011.1
2023-05-19T08:01:13.100Z,1011.2
2023-05-19T08:02:38.573Z,1011.2
2023-05-19T08:04:00.952Z,1011.2
2023-05-19T08:05:23.910Z,1011.2
2023-05-19T08:06:51.830Z,1011.2
2023-05-19T08:08:23.320Z,1011.2
2023-05-19T08:09:46.477Z,1011.2
2023-05-19T08:11:05.104Z,1011.2
2023-05-19T08:12:25.116Z,1011.2
2023-05-19T08:13:56.247Z,1011.2
2023-05-19T08:15:23.955Z,1011.2
2023-05-19T08:16:44.907Z,1011.2
2023-05-19T08:18:04.963Z,1011.2
2023-05-19T08:19:22.941Z,1011.2
2023-05-19T08:20:52.334Z,1011.2
2023-05-19T08:22:17.552Z,1011.1
2023-05-19T08:23:40.229Z,1011.1
2023-05-19T08:25:15.610Z,1011.1
2023-05-19T08:26:37.728Z,1011.1
2023-05-19T08:28:01.172Z,1011.1
2023-05-19T08:29:24.093Z,1011.1
2023-05-19T08:30:50.801Z,1011.1
2023-05-19T08:32:21.993Z,1011.1
2023-05-19T08:33:43.828Z,1011.1
2023-05-19T08:35:05.768Z,1011
2023-05-19T08:36:30.467Z,1011
2023-05-19T08:37:57.047Z,1011.1
2023-05-19T08:39:19.114Z,1011.1
2023-05-19T08:40:39.900Z,1011.1
2023-05-19T08:42:00.386Z,1011.1
2023-05-19T08:43:21.563Z,1011.1
2023-05-19T08:44:43.024Z,1011.1
2023-05-19T08:46:06.972Z,1011.1
2023-05-19T08:47:25.129Z,1011
2023-05-19T08:48:54.385Z,1011
2023-05-19T08:51:41.505Z,1011.1
2023-05-19T08:53:00.109Z,1011.1
2023-05-19T08:54:22.416Z,1011.1
2023-05-19T08:55:49.793Z,1011.1
2023-05-19T08:57:09.919Z,1011.1
2023-05-19T08:58:28.777Z,1011
2023-05-19T08:59:55.700Z,1011
2023-05-19T09:01:18.435Z,1011
2023-05-19T09:02:46.457Z,1011
2023-05-19T09:04:04.422Z,1011
2023-05-19T09:05:32.582Z,1011
2023-05-19T09:06:56.606Z,1011
2023-05-19T09:08:34.495Z,1011.1
2023-05-19T09:09:57.018Z,1011.1
2023-05-19T09:11:17.915Z,1011.1
2023-05-19T09:12:37.965Z,1011.1
2023-05-19T09:13:56.989Z,1011.1
2023-05-19T09:15:21.090Z,1011.1
2023-05-19T09:16:42.118Z,1011.1
2023-05-19T09:18:13.566Z,1011.1
2023-05-19T09:19:36.684Z,1011.1
2023-05-19T09:21:03.484Z,1011.1
2023-05-19T09:22:28.185Z,1011.1
2023-05-19T09:23:52.886Z,1011.1
2023-05-19T09:25:31.414Z,1011.1
2023-05-19T09:26:51.989Z,1011.1
2023-05-19T09:28:22.684Z,1011.1
2023-05-19T09:29:50.615Z,1011.1
2023-05-19T09:31:16.265Z,1011.1
2023-05-19T09:32:40.104Z,1011.1
2023-05-19T09:34:12.408Z,1011.1
2023-05-19T09:35:37.194Z,1011.1
2023-05-19T09:37:03.636Z,1011.1
2023-05-19T09:38:26.184Z,1011.1
2023-05-19T09:39:48.005Z,1011
2023-05-19T09:41:08.290Z,1011
2023-05-19T09:42:27.424Z,1011
2023-05-19T09:43:52.725Z,1011
2023-05-19T09:45:25.131Z,1010.9
2023-05-19T09:46:43.264Z,1010.9
2023-05-19T09:48:04.571Z,1010.9
2023-05-19T09:49:30.901Z,1010.9
2023-05-19T09:50:50.002Z,1010.9
2023-05-19T09:52:16.430Z,1010.9
2023-05-19T09:53:37.103Z,1010.9
2023-05-19T09:55:09.539Z,1010.9
2023-05-19T09:56:29.812Z,1010.9
2023-05-19T09:57:50.240Z,1010.9
2023-05-19T09:59:09.208Z,1010.9
2023-05-19T10:00:38.502Z,1010.9
2023-05-19T10:01:59.022Z,1010.9
2023-05-19T10:03:25.792Z,1010.9
2023-05-19T10:06:22.726Z,1010.9
2023-05-19T10:09:07.298Z,1010.8
2023-05-19T10:10:34.395Z,1010.8
2023-05-19T10:12:00.672Z,1010.8
2023-05-19T10:13:29.341Z,1010.8
2023-05-19T10:14:54.375Z,1010.7
2023-05-19T10:16:20.304Z,1010.8
2023-05-19T10:19:06.753Z,1010.8
2023-05-19T10:20:32.790Z,1010.7
2023-05-19T10:21:52.534Z,1010.8
2023-05-19T10:23:18.424Z,1010.7
2023-05-19T10:24:56.219Z,1010.7
2023-05-19T10:26:19.731Z,1010.7
2023-05-19T10:27:42.647Z,1010.6
2023-05-19T10:29:06.417Z,1010.7
2023-05-19T10:30:28.225Z,1010.7
2023-05-19T10:31:55.558Z,1010.6
2023-05-19T10:33:14.805Z,1010.7
2023-05-19T10:34:49.430Z,1010.7
2023-05-19T10:36:07.584Z,1010.8
2023-05-19T10:37:31.805Z,1010.7
2023-05-19T10:38:59.249Z,1010.7
2023-05-19T10:40:22.313Z,1010.7
2023-05-19T10:41:57.535Z,1010.7
2023-05-19T10:44:55.285Z,1010.7
2023-05-19T10:46:16.560Z,1010.7
2023-05-19T10:47:50.233Z,1010.7
2023-05-19T10:50:55.466Z,1010.7
2023-05-19T10:52:16.475Z,1010.7
2023-05-19T10:53:43.808Z,1010.7
2023-05-19T10:55:05.825Z,1010.7
2023-05-19T10:56:32.697Z,1010.7
2023-05-19T10:57:53.721Z,1010.8
2023-05-19T10:59:14.612Z,1010.8
2023-05-19T11:00:36.786Z,1010.8
2023-05-19T11:01:57.795Z,1010.8
2023-05-19T11:03:19.649Z,1010.8
2023-05-19T11:04:37.661Z,1010.8
2023-05-19T11:06:01.645Z,1010.8
2023-05-19T11:07:33.820Z,1010.8
2023-05-19T11:08:55.762Z,1010.8
2023-05-19T11:10:27.473Z,1010.8
2023-05-19T11:12:00.356Z,1010.8
2023-05-19T11:13:23.652Z,1010.8
2023-05-19T11:14:44.611Z,1010.8
2023-05-19T11:16:05.575Z,1010.8
2023-05-19T11:17:39.046Z,1010.8
2023-05-19T11:19:10.769Z,1010.8
2023-05-19T11:20:32.837Z,1010.8
2023-05-19T11:21:50.939Z,1010.8
2023-05-19T11:24:45.526Z,1010.7
2023-05-19T11:26:10.243Z,1010.7
2023-05-19T11:27:39.350Z,1010.7
2023-05-19T11:29:09.605Z,1010.8
2023-05-19T11:30:37.706Z,1010.7
2023-05-19T11:32:12.307Z,1010.7
2023-05-19T11:33:35.780Z,1010.7
2023-05-19T11:34:59.525Z,1010.7
2023-05-19T11:36:23.762Z,1010.7
2023-05-19T11:37:50.657Z,1010.7
2023-05-19T11:39:19.640Z,1010.8
2023-05-19T11:40:46.683Z,1010.8
2023-05-19T11:42:06.574Z,1010.8
2023-05-19T11:43:32.258Z,1010.8
2023-05-19T11:44:53.817Z,1010.8
2023-05-19T11:46:18.567Z,1010.8
2023-05-19T11:47:51.963Z,1010.7
2023-05-19T11:49:03.543Z,1010.8
2023-05-19T11:50:26.660Z,1010.7
2023-05-19T11:51:47.397Z,1010.8
2023-05-19T11:53:14.775Z,1010.7
2023-05-19T11:54:34.584Z,1010.7
2023-05-19T11:55:55.949Z,1010.8
2023-05-19T11:57:30.069Z,1010.8
2023-05-19T11:59:02.865Z,1010.7
2023-05-19T12:00:23.498Z,1010.8
2023-05-19T12:01:44.283Z,1010.8
2023-05-19T12:03:11.642Z,1010.8
2023-05-19T12:04:34.649Z,1010.7
2023-05-19T12:06:09.030Z,1010.8
2023-05-19T12:09:13.752Z,1010.8
2023-05-19T12:10:44.199Z,1010.8
2023-05-19T12:12:03.817Z,1010.8
2023-05-19T12:13:26.673Z,1010.8
2023-05-19T12:15:01.063Z,1010.8
2023-05-19T12:16:23.636Z,1010.8
2023-05-19T12:17:45.577Z,1010.8
2023-05-19T12:19:10.343Z,1010.8
2023-05-19T12:20:28.502Z,1010.8
2023-05-19T12:21:55.175Z,1010.8
2023-05-19T12:23:20.028Z,1010.8
2023-05-19T12:24:47.711Z,1010.8
2023-05-19T12:26:12.476Z,1010.8
2023-05-19T12:27:45.953Z,1010.8
2023-05-19T12:29:09.175Z,1010.8
2023-05-19T12:30:34.920Z,1010.7
2023-05-19T12:32:08.262Z,1010.7
2023-05-19T12:33:36.237Z,1010.7
2023-05-19T12:35:00.639Z,1010.7
2023-05-19T12:36:25.272Z,1010.7
2023-05-19T12:37:48.251Z,1010.7
2023-05-19T12:39:14.763Z,1010.6
2023-05-19T12:40:46.690Z,1010.6
2023-05-19T12:42:11.685Z,1010.7
2023-05-19T12:43:36.954Z,1010.7
2023-05-19T12:44:58.931Z,1010.7
2023-05-19T12:46:21.532Z,1010.7
2023-05-19T12:47:41.613Z,1010.7
2023-05-19T12:49:04.313Z,1010.7
2023-05-19T12:50:31.454Z,1010.7
2023-05-19T12:51:55.310Z,1010.7
2023-05-19T12:53:17.401Z,1010.7
2023-05-19T12:54:42.646Z,1010.6
2023-05-19T12:56:11.140Z,1010.6
2023-05-19T12:57:39.142Z,1010.6
2023-05-19T12:59:01.189Z,1010.6
2023-05-19T13:00:29.399Z,1010.6
2023-05-19T13:02:02.999Z,1010.6
2023-05-19T13:03:23.732Z,1010.6
2023-05-19T13:04:50.278Z,1010.6
2023-05-19T13:06:21.266Z,1010.6
2023-05-19T13:07:43.570Z,1010.6
2023-05-19T13:09:01.512Z,1010.6
2023-05-19T13:10:29.404Z,1010.6
2023-05-19T13:11:50.339Z,1010.6
2023-05-19T13:13:15.752Z,1010.5
2023-05-19T13:14:36.344Z,1010.6
2023-05-19T13:15:59.543Z,1010.6
2023-05-19T13:17:28.572Z,1010.6
2023-05-19T13:18:49.797Z,1010.6
2023-05-19T13:20:12.350Z,1010.7
2023-05-19T13:21:32.361Z,1010.6
2023-05-19T13:22:53.422Z,1010.7
2023-05-19T13:24:19.767Z,1010.7
2023-05-19T13:25:49.749Z,1010.7
2023-05-19T13:27:20.621Z,1010.7
2023-05-19T13:28:49.956Z,1010.7
2023-05-19T13:30:15.853Z,1010.7
2023-05-19T13:31:39.561Z,1010.7
2023-05-19T13:33:10.462Z,1010.7
2023-05-19T13:34:34.336Z,1010.7
2023-05-19T13:35:57.050Z,1010.7
2023-05-19T13:37:20.769Z,1010.7
2023-05-19T13:38:43.492Z,1010.6
2023-05-19T13:40:03.145Z,1010.6
2023-05-19T13:41:27.475Z,1010.6
2023-05-19T13:42:51.345Z,1010.5
2023-05-19T13:44:11.643Z,1010.6
2023-05-19T13:45:29.601Z,1010.6
2023-05-19T13:48:20.230Z,1010.7
2023-05-19T13:49:40.365Z,1010.7
2023-05-19T13:51:07.809Z,1010.6
2023-05-19T13:52:26.938Z,1010.6
2023-05-19T13:53:48.724Z,1010.6
2023-05-19T13:55:10.810Z,1010.7
2023-05-19T13:56:39.847Z,1010.6
2023-05-19T13:58:02.610Z,1010.7
2023-05-19T13:59:26.416Z,1010.7
2023-05-19T14:00:45.505Z,1010.7
2023-05-19T14:02:17.474Z,1010.6
2023-05-19T14:03:40.747Z,1010.7
2023-05-19T14:05:04.731Z,1010.6
2023-05-19T14:06:25.656Z,1010.6
2023-05-19T14:07:49.340Z,1010.7
2023-05-19T14:09:08.650Z,1010.7
2023-05-19T14:10:35.531Z,1010.6
2023-05-19T14:11:59.538Z,1010.6
2023-05-19T14:13:31.904Z,1010.6
2023-05-19T14:14:52.803Z,1010.6
2023-05-19T14:16:17.746Z,1010.6
2023-05-19T14:17:39.574Z,1010.6
2023-05-19T14:19:04.622Z,1010.6
2023-05-19T14:20:21.576Z,1010.6
2023-05-19T14:21:51.932Z,1010.5
2023-05-19T14:23:10.732Z,1010.5
2023-05-19T14:24:31.543Z,1010.5
2023-05-19T14:25:52.192Z,1010.5
2023-05-19T14:27:14.538Z,1010.6
2023-05-19T14:28:43.834Z,1010.6
2023-05-19T14:30:15.003Z,1010.5
2023-05-19T14:31:38.783Z,1010.5
2023-05-19T14:33:03.193Z,1010.5
2023-05-19T14:34:34.522Z,1010.5
2023-05-19T14:35:58.626Z,1010.6
2023-05-19T14:37:24.767Z,1010.5
2023-05-19T14:38:44.858Z,1010.5
2023-05-19T14:40:06.145Z,1010.5
2023-05-19T14:41:36.703Z,1010.5
2023-05-19T14:43:05.440Z,1010.5
2023-05-19T14:44:23.824Z,1010.5
2023-05-19T14:45:54.096Z,1010.4
2023-05-19T14:47:18.592Z,1010.4
2023-05-19T14:48:45.118Z,1010.5
2023-05-19T14:50:16.397Z,1010.5
2023-05-19T14:51:37.947Z,1010.5
2023-05-19T14:52:57.519Z,1010.5
2023-05-19T14:54:25.449Z,1010.5
2023-05-19T14:55:54.794Z,1010.5
2023-05-19T14:57:23.608Z,1010.5
2023-05-19T14:58:47.966Z,1010.5
2023-05-19T15:00:09.027Z,1010.5
2023-05-19T15:01:42.846Z,1010.5
2023-05-19T15:03:03.727Z,1010.4
2023-05-19T15:04:24.856Z,1010.4
2023-05-19T15:07:20.995Z,1010.4
2023-05-19T15:08:44.735Z,1010.4
2023-05-19T15:10:02.824Z,1010.5
2023-05-19T15:11:28.817Z,1010.5
2023-05-19T15:12:57.276Z,1010.4
2023-05-19T15:14:20.468Z,1010.4
2023-05-19T15:17:21.328Z,1010.5
2023-05-19T15:20:10.604Z,1010.5
2023-05-19T15:21:37.860Z,1010.4
2023-05-19T15:23:01.980Z,1010.4
2023-05-19T15:24:25.655Z,1010.5
2023-05-19T15:25:48.602Z,1010.5
2023-05-19T15:27:06.851Z,1010.5
2023-05-19T15:28:26.612Z,1010.5
2023-05-19T15:29:55.915Z,1010.5
2023-05-19T15:31:22.795Z,1010.5
2023-05-19T15:32:41.645Z,1010.4
2023-05-19T15:34:01.779Z,1010.4
2023-05-19T15:35:23.885Z,1010.4
2023-05-19T15:36:40.593Z,1010.4
2023-05-19T15:38:00.832Z,1010.5
2023-05-19T15:39:32.513Z,1010.5
2023-05-19T15:40:52.797Z,1010.4
2023-05-19T15:42:10.636Z,1010.4
2023-05-19T15:43:35.074Z,1010.4
2023-05-19T15:44:58.137Z,1010.4
2023-05-19T15:46:20.753Z,1010.4
2023-05-19T15:47:44.072Z,1010.4
2023-05-19T15:49:08.152Z,1010.4
2023-05-19T15:50:28.857Z,1010.4
2023-05-19T15:51:52.619Z,1010.4
2023-05-19T15:53:13.715Z,1010.4
2023-05-19T15:54:36.170Z,1010.3
2023-05-19T15:55:56.178Z,1010.3
2023-05-19T15:57:22.497Z,1010.3
2023-05-19T15:58:43.859Z,1010.3
2023-05-19T16:00:11.453Z,1010.3
2023-05-19T16:01:35.135Z,1010.3
2023-05-19T16:02:53.844Z,1010.3
2023-05-19T16:04:18.728Z,1010.4
2023-05-19T16:05:43.297Z,1010.3
2023-05-19T16:07:11.872Z,1010.3
2023-05-19T16:08:31.832Z,1010.3
2023-05-19T16:09:59.783Z,1010.3
2023-05-19T16:11:17.776Z,1010.3
2023-05-19T16:12:47.839Z,1010.3
2023-05-19T16:14:07.865Z,1010.3
2023-05-19T16:15:26.908Z,1010.3
2023-05-19T16:16:47.907Z,1010.4
2023-05-19T16:18:10.925Z,1010.4
2023-05-19T16:19:37.666Z,1010.3
2023-05-19T16:21:05.669Z,1010.3
2023-05-19T16:22:23.937Z,1010.3
2023-05-19T16:23:44.510Z,1010.3
2023-05-19T16:25:10.817Z,1010.3
2023-05-19T16:26:36.323Z,1010.3
2023-05-19T16:28:12.580Z,1010.3
2023-05-19T16:29:42.876Z,1010.3
2023-05-19T16:31:07.686Z,1010.3
2023-05-19T16:32:42.356Z,1010.3
2023-05-19T16:34:01.859Z,1010.3
2023-05-19T16:35:21.960Z,1010.4
2023-05-19T16:36:42.580Z,1010.3
2023-05-19T16:38:04.965Z,1010.3
2023-05-19T16:39:30.941Z,1010.3
2023-05-19T16:40:53.719Z,1010.3
2023-05-19T16:42:15.748Z,1010.3
2023-05-19T16:43:33.997Z,1010.3
2023-05-19T16:45:00.648Z,1010.3
2023-05-19T16:46:19.160Z,1010.3
2023-05-19T16:47:43.866Z,1010.3
2023-05-19T16:49:01.963Z,1010.3
2023-05-19T16:50:22.029Z,1010.3
2023-05-19T16:51:46.756Z,1010.3
2023-05-19T16:53:09.927Z,1010.3
2023-05-19T16:54:34.549Z,1010.3
2023-05-19T16:55:56.734Z,1010.2
2023-05-19T16:57:15.117Z,1010.2
2023-05-19T16:58:38.743Z,1010.3
2023-05-19T17:00:04.922Z,1010.3
2023-05-19T17:01:25.928Z,1010.2
2023-05-19T17:02:52.864Z,1010.2
2023-05-19T17:04:10.929Z,1010.3
2023-05-19T17:05:36.631Z,1010.3
2023-05-19T17:06:58.850Z,1010.3
2023-05-19T17:08:15.737Z,1010.3
2023-05-19T17:09:41.931Z,1010.3
2023-05-19T17:11:10.850Z,1010.4
2023-05-19T17:12:31.881Z,1010.3
2023-05-19T17:14:10.141Z,1010.3
2023-05-19T17:15:28.893Z,1010.3
2023-05-19T17:16:49.775Z,1010.3
2023-05-19T17:18:16.155Z,1010.3
2023-05-19T17:19:40.701Z,1010.3
2023-05-19T17:21:00.932Z,1010.3
2023-05-19T17:22:20.828Z,1010.3
2023-05-19T17:23:46.947Z,1010.3
2023-05-19T17:25:05.078Z,1010.3
2023-05-19T17:26:32.004Z,1010.3
2023-05-19T17:28:06.858Z,1010.3
2023-05-19T17:29:30.273Z,1010.3
2023-05-19T17:30:53.186Z,1010.3
2023-05-19T17:32:14.149Z,1010.3
2023-05-19T17:33:31.887Z,1010.3
2023-05-19T17:34:51.908Z,1010.3
2023-05-19T17:36:16.975Z,1010.3
2023-05-19T17:37:33.789Z,1010.3
2023-05-19T17:39:02.161Z,1010.4
2023-05-19T17:40:23.958Z,1010.3
2023-05-19T17:41:49.214Z,1010.4
2023-05-19T17:43:13.755Z,1010.4
2023-05-19T17:44:39.842Z,1010.4
2023-05-19T17:46:01.829Z,1010.5
2023-05-19T17:47:20.210Z,1010.5
2023-05-19T17:48:53.687Z,1010.4
2023-05-19T17:50:13.097Z,1010.4
2023-05-19T17:51:32.733Z,1010.5
2023-05-19T17:52:51.048Z,1010.4
2023-05-19T17:54:12.196Z,1010.5
2023-05-19T17:55:33.017Z,1010.5
2023-05-19T17:56:52.830Z,1010.5
2023-05-19T17:58:21.318Z,1010.5
2023-05-19T17:59:38.946Z,1010.5
2023-05-19T18:02:27.851Z,1010.5
2023-05-19T18:03:51.544Z,1010.5
2023-05-19T18:05:22.193Z,1010.5
2023-05-19T18:06:50.844Z,1010.5
2023-05-19T18:08:13.091Z,1010.5